sensor_id;sensor_type;location;lat;lon;timestamp;P1;durP1;ratioP1;P2;durP2;ratioP2
75512;SDS011;64090;49.770;18.760;2023-09-19T00:03:31;14.20;;;9.80;;
75512;SDS011;64090;49.770;18.760;2023-09-19T00:08:08;12.20;;;9.70;;
75512;SDS011;64090;49.770;18.760;2023-09-19T00:11:49;11.90;;;9.80;;
75512;SDS011;64090;49.770;18.760;2023-09-19T00:15:21;11.30;;;8.70;;
75512;SDS011;64090;49.770;18.760;2023-09-19T00:18:55;11.20;;;8.90;;
75512;SDS011;64090;49.770;18.760;2023-09-19T00:22:55;11.70;;;10.20;;
75512;SDS011;64090;49.770;18.760;2023-09-19T00:26:41;11.40;;;8.50;;
75512;SDS011;64090;49.770;18.760;2023-09-19T00:30:06;9.40;;;8.40;;
75512;SDS011;64090;49.770;18.760;2023-09-19T00:33:43;11.10;;;9.40;;
75512;SDS011;64090;49.770;18.760;2023-09-19T00:37:16;10.50;;;8.30;;
75512;SDS011;64090;49.770;18.760;2023-09-19T00:40:44;11.10;;;8.30;;
75512;SDS011;64090;49.770;18.760;2023-09-19T00:44:44;11.70;;;10.20;;
75512;SDS011;64090;49.770;18.760;2023-09-19T00:48:39;10.60;;;8.40;;
75512;SDS011;64090;49.770;18.760;2023-09-19T00:52:13;11.50;;;8.60;;
75512;SDS011;64090;49.770;18.760;2023-09-19T00:56:25;11.70;;;10.40;;
75512;SDS011;64090;49.770;18.760;2023-09-19T00:59:53;11.00;;;8.90;;
75512;SDS011;64090;49.770;18.760;2023-09-19T01:03:42;11.10;;;9.80;;
75512;SDS011;64090;49.770;18.760;2023-09-19T01:06:55;9.50;;;8.50;;
75512;SDS011;64090;49.770;18.760;2023-09-19T01:10:20;11.20;;;9.90;;
75512;SDS011;64090;49.770;18.760;2023-09-19T01:13:44;14.10;;;9.90;;
75512;SDS011;64090;49.770;18.760;2023-09-19T01:17:27;11.00;;;9.20;;
75512;SDS011;64090;49.770;18.760;2023-09-19T01:21:21;11.50;;;8.90;;
75512;SDS011;64090;49.770;18.760;2023-09-19T01:29:50;10.00;;;8.80;;
75512;SDS011;64090;49.770;18.760;2023-09-19T01:33:18;10.50;;;8.80;;
75512;SDS011;64090;49.770;18.760;2023-09-19T01:37:20;12.00;;;9.60;;
75512;SDS011;64090;49.770;18.760;2023-09-19T01:40:53;10.50;;;8.40;;
75512;SDS011;64090;49.770;18.760;2023-09-19T01:44:25;10.50;;;8.80;;
75512;SDS011;64090;49.770;18.760;2023-09-19T01:48:18;8.20;;;7.00;;
75512;SDS011;64090;49.770;18.760;2023-09-19T01:52:15;10.60;;;8.70;;
75512;SDS011;64090;49.770;18.760;2023-09-19T01:55:46;11.80;;;8.70;;
75512;SDS011;64090;49.770;18.760;2023-09-19T01:59:11;10.90;;;8.40;;
75512;SDS011;64090;49.770;18.760;2023-09-19T02:02:19;9.60;;;8.00;;
75512;SDS011;64090;49.770;18.760;2023-09-19T02:05:53;10.20;;;8.10;;
75512;SDS011;64090;49.770;18.760;2023-09-19T02:09:18;10.90;;;8.10;;
75512;SDS011;64090;49.770;18.760;2023-09-19T02:12:38;13.10;;;10.10;;
75512;SDS011;64090;49.770;18.760;2023-09-19T02:16:07;13.00;;;9.50;;
75512;SDS011;64090;49.770;18.760;2023-09-19T02:23:02;10.80;;;8.50;;
75512;SDS011;64090;49.770;18.760;2023-09-19T02:26:36;12.00;;;9.30;;
75512;SDS011;64090;49.770;18.760;2023-09-19T02:30:01;10.10;;;8.80;;
75512;SDS011;64090;49.770;18.760;2023-09-19T02:33:33;11.20;;;8.60;;
75512;SDS011;64090;49.770;18.760;2023-09-19T02:36:58;12.60;;;9.10;;
75512;SDS011;64090;49.770;18.760;2023-09-19T02:40:22;11.00;;;8.60;;
75512;SDS011;64090;49.770;18.760;2023-09-19T02:44:03;9.90;;;8.90;;
75512;SDS011;64090;49.770;18.760;2023-09-19T02:47:33;15.00;;;9.00;;
75512;SDS011;64090;49.770;18.760;2023-09-19T02:51:09;11.00;;;9.50;;
75512;SDS011;64090;49.770;18.760;2023-09-19T02:55:11;12.20;;;9.90;;
75512;SDS011;64090;49.770;18.760;2023-09-19T02:58:30;11.80;;;10.10;;
75512;SDS011;64090;49.770;18.760;2023-09-19T03:01:58;14.00;;;10.00;;
75512;SDS011;64090;49.770;18.760;2023-09-19T03:05:46;12.30;;;10.20;;
75512;SDS011;64090;49.770;18.760;2023-09-19T03:09:13;13.70;;;10.70;;
75512;SDS011;64090;49.770;18.760;2023-09-19T03:13:05;14.40;;;10.10;;
75512;SDS011;64090;49.770;18.760;2023-09-19T03:16:35;17.00;;;10.50;;
75512;SDS011;64090;49.770;18.760;2023-09-19T03:19:59;15.70;;;10.10;;
75512;SDS011;64090;49.770;18.760;2023-09-19T03:23:43;12.50;;;10.00;;
75512;SDS011;64090;49.770;18.760;2023-09-19T03:27:49;10.70;;;9.40;;
75512;SDS011;64090;49.770;18.760;2023-09-19T03:31:07;12.60;;;10.20;;
75512;SDS011;64090;49.770;18.760;2023-09-19T03:34:31;14.10;;;9.30;;
75512;SDS011;64090;49.770;18.760;2023-09-19T03:37:54;13.80;;;10.70;;
75512;SDS011;64090;49.770;18.760;2023-09-19T03:41:18;16.10;;;11.90;;
75512;SDS011;64090;49.770;18.760;2023-09-19T03:44:41;15.90;;;11.20;;
75512;SDS011;64090;49.770;18.760;2023-09-19T03:47:51;13.70;;;10.20;;
75512;SDS011;64090;49.770;18.760;2023-09-19T03:51:13;14.10;;;11.00;;
75512;SDS011;64090;49.770;18.760;2023-09-19T03:57:59;14.70;;;11.50;;
75512;SDS011;64090;49.770;18.760;2023-09-19T04:01:25;12.90;;;10.70;;
75512;SDS011;64090;49.770;18.760;2023-09-19T04:04:52;12.30;;;10.00;;
75512;SDS011;64090;49.770;18.760;2023-09-19T04:08:21;16.90;;;13.90;;
75512;SDS011;64090;49.770;18.760;2023-09-19T04:11:40;17.10;;;13.10;;
75512;SDS011;64090;49.770;18.760;2023-09-19T04:15:20;15.00;;;11.60;;
75512;SDS011;64090;49.770;18.760;2023-09-19T04:18:45;16.10;;;13.40;;
75512;SDS011;64090;49.770;18.760;2023-09-19T04:22:08;12.90;;;11.00;;
75512;SDS011;64090;49.770;18.760;2023-09-19T04:25:32;15.10;;;12.80;;
75512;SDS011;64090;49.770;18.760;2023-09-19T04:28:53;20.00;;;12.10;;
75512;SDS011;64090;49.770;18.760;2023-09-19T04:32:03;15.70;;;13.40;;
75512;SDS011;64090;49.770;18.760;2023-09-19T04:35:48;17.50;;;14.30;;
75512;SDS011;64090;49.770;18.760;2023-09-19T04:39:31;18.70;;;14.20;;
75512;SDS011;64090;49.770;18.760;2023-09-19T04:43:14;18.40;;;13.80;;
75512;SDS011;64090;49.770;18.760;2023-09-19T04:46:39;20.10;;;14.40;;
75512;SDS011;64090;49.770;18.760;2023-09-19T04:50:02;16.20;;;12.50;;
75512;SDS011;64090;49.770;18.760;2023-09-19T04:53:25;18.30;;;14.40;;
75512;SDS011;64090;49.770;18.760;2023-09-19T04:56:52;18.10;;;13.60;;
75512;SDS011;64090;49.770;18.760;2023-09-19T05:00:15;17.10;;;13.40;;
75512;SDS011;64090;49.770;18.760;2023-09-19T05:03:43;16.90;;;13.40;;
75512;SDS011;64090;49.770;18.760;2023-09-19T05:07:17;16.80;;;14.10;;
75512;SDS011;64090;49.770;18.760;2023-09-19T05:10:50;18.00;;;14.30;;
75512;SDS011;64090;49.770;18.760;2023-09-19T05:14:14;18.30;;;13.90;;
75512;SDS011;64090;49.770;18.760;2023-09-19T05:17:38;22.80;;;16.50;;
75512;SDS011;64090;49.770;18.760;2023-09-19T05:21:01;19.60;;;14.20;;
75512;SDS011;64090;49.770;18.760;2023-09-19T05:24:24;18.90;;;14.30;;
75512;SDS011;64090;49.770;18.760;2023-09-19T05:27:52;21.30;;;16.10;;
75512;SDS011;64090;49.770;18.760;2023-09-19T05:31:16;17.60;;;13.80;;
75512;SDS011;64090;49.770;18.760;2023-09-19T05:34:42;22.40;;;18.00;;
75512;SDS011;64090;49.770;18.760;2023-09-19T05:38:06;18.40;;;13.00;;
75512;SDS011;64090;49.770;18.760;2023-09-19T05:45:12;15.90;;;12.60;;
75512;SDS011;64090;49.770;18.760;2023-09-19T05:48:41;14.80;;;8.50;;
75512;SDS011;64090;49.770;18.760;2023-09-19T05:52:27;11.40;;;7.80;;
75512;SDS011;64090;49.770;18.760;2023-09-19T05:55:46;14.60;;;9.90;;
75512;SDS011;64090;49.770;18.760;2023-09-19T05:59:08;10.90;;;8.00;;
75512;SDS011;64090;49.770;18.760;2023-09-19T06:02:39;10.20;;;6.40;;
75512;SDS011;64090;49.770;18.760;2023-09-19T06:06:01;7.90;;;6.50;;
75512;SDS011;64090;49.770;18.760;2023-09-19T06:09:26;9.00;;;7.10;;
75512;SDS011;64090;49.770;18.760;2023-09-19T06:12:50;9.30;;;7.20;;
75512;SDS011;64090;49.770;18.760;2023-09-19T06:16:26;10.30;;;7.40;;
75512;SDS011;64090;49.770;18.760;2023-09-19T06:19:48;9.40;;;6.60;;
75512;SDS011;64090;49.770;18.760;2023-09-19T06:23:20;9.90;;;7.40;;
75512;SDS011;64090;49.770;18.760;2023-09-19T06:26:31;7.70;;;6.00;;
75512;SDS011;64090;49.770;18.760;2023-09-19T06:29:54;6.30;;;4.30;;
75512;SDS011;64090;49.770;18.760;2023-09-19T06:33:20;9.20;;;5.90;;
75512;SDS011;64090;49.770;18.760;2023-09-19T06:36:42;9.50;;;5.70;;
75512;SDS011;64090;49.770;18.760;2023-09-19T06:40:14;9.00;;;6.70;;
75512;SDS011;64090;49.770;18.760;2023-09-19T06:43:40;7.20;;;4.90;;
75512;SDS011;64090;49.770;18.760;2023-09-19T06:47:08;6.90;;;4.80;;
75512;SDS011;64090;49.770;18.760;2023-09-19T06:50:32;6.60;;;4.70;;
75512;SDS011;64090;49.770;18.760;2023-09-19T06:54:10;12.20;;;7.70;;
75512;SDS011;64090;49.770;18.760;2023-09-19T06:57:34;14.60;;;10.20;;
75512;SDS011;64090;49.770;18.760;2023-09-19T07:00:56;12.10;;;8.50;;
75512;SDS011;64090;49.770;18.760;2023-09-19T07:04:21;14.00;;;9.30;;
75512;SDS011;64090;49.770;18.760;2023-09-19T07:07:37;9.20;;;7.20;;
75512;SDS011;64090;49.770;18.760;2023-09-19T07:11:02;8.10;;;6.10;;
75512;SDS011;64090;49.770;18.760;2023-09-19T07:14:26;6.80;;;4.70;;
75512;SDS011;64090;49.770;18.760;2023-09-19T07:17:42;6.40;;;4.30;;
75512;SDS011;64090;49.770;18.760;2023-09-19T07:21:00;5.10;;;3.10;;
75512;SDS011;64090;49.770;18.760;2023-09-19T07:24:23;4.70;;;2.90;;
75512;SDS011;64090;49.770;18.760;2023-09-19T07:27:35;4.50;;;2.80;;
75512;SDS011;64090;49.770;18.760;2023-09-19T07:34:32;4.60;;;2.70;;
75512;SDS011;64090;49.770;18.760;2023-09-19T07:37:43;5.30;;;3.00;;
75512;SDS011;64090;49.770;18.760;2023-09-19T07:41:02;4.80;;;2.70;;
75512;SDS011;64090;49.770;18.760;2023-09-19T07:44:26;3.70;;;2.10;;
75512;SDS011;64090;49.770;18.760;2023-09-19T07:51:50;3.10;;;2.20;;
75512;SDS011;64090;49.770;18.760;2023-09-19T07:55:31;4.50;;;1.80;;
75512;SDS011;64090;49.770;18.760;2023-09-19T07:59:05;3.80;;;1.80;;
75512;SDS011;64090;49.770;18.760;2023-09-19T08:02:44;3.60;;;1.70;;
75512;SDS011;64090;49.770;18.760;2023-09-19T08:06:20;4.50;;;2.20;;
75512;SDS011;64090;49.770;18.760;2023-09-19T08:09:35;3.10;;;2.00;;
75512;SDS011;64090;49.770;18.760;2023-09-19T08:13:04;4.40;;;2.30;;
75512;SDS011;64090;49.770;18.760;2023-09-19T08:16:32;2.90;;;2.10;;
75512;SDS011;64090;49.770;18.760;2023-09-19T08:19:59;2.90;;;2.00;;
75512;SDS011;64090;49.770;18.760;2023-09-19T08:23:43;2.70;;;1.70;;
75512;SDS011;64090;49.770;18.760;2023-09-19T08:27:13;4.80;;;2.70;;
75512;SDS011;64090;49.770;18.760;2023-09-19T08:30:45;4.00;;;2.10;;
75512;SDS011;64090;49.770;18.760;2023-09-19T08:34:10;5.70;;;2.80;;
75512;SDS011;64090;49.770;18.760;2023-09-19T08:37:38;4.30;;;2.90;;
75512;SDS011;64090;49.770;18.760;2023-09-19T08:40:46;4.40;;;2.90;;
75512;SDS011;64090;49.770;18.760;2023-09-19T08:44:14;3.50;;;2.60;;
75512;SDS011;64090;49.770;18.760;2023-09-19T08:51:45;3.60;;;2.80;;
75512;SDS011;64090;49.770;18.760;2023-09-19T08:55:20;3.40;;;2.70;;
75512;SDS011;64090;49.770;18.760;2023-09-19T08:58:50;3.50;;;2.80;;
75512;SDS011;64090;49.770;18.760;2023-09-19T09:02:37;4.10;;;2.60;;
75512;SDS011;64090;49.770;18.760;2023-09-19T09:06:10;6.30;;;2.60;;
75512;SDS011;64090;49.770;18.760;2023-09-19T09:09:36;3.30;;;2.40;;
75512;SDS011;64090;49.770;18.760;2023-09-19T09:13:16;3.30;;;2.20;;
75512;SDS011;64090;49.770;18.760;2023-09-19T09:16:43;3.50;;;2.20;;
75512;SDS011;64090;49.770;18.760;2023-09-19T09:20:08;3.40;;;2.30;;
75512;SDS011;64090;49.770;18.760;2023-09-19T09:23:51;4.00;;;3.10;;
75512;SDS011;64090;49.770;18.760;2023-09-19T09:27:38;4.90;;;2.20;;
75512;SDS011;64090;49.770;18.760;2023-09-19T09:31:12;4.00;;;2.20;;
75512;SDS011;64090;49.770;18.760;2023-09-19T09:34:33;6.20;;;2.80;;
75512;SDS011;64090;49.770;18.760;2023-09-19T09:41:15;2.50;;;2.00;;
75512;SDS011;64090;49.770;18.760;2023-09-19T09:44:44;3.20;;;2.20;;
75512;SDS011;64090;49.770;18.760;2023-09-19T09:48:24;4.50;;;2.50;;
75512;SDS011;64090;49.770;18.760;2023-09-19T09:52:17;3.60;;;2.20;;
75512;SDS011;64090;49.770;18.760;2023-09-19T09:55:29;2.60;;;2.10;;
75512;SDS011;64090;49.770;18.760;2023-09-19T09:59:46;3.70;;;2.50;;
75512;SDS011;64090;49.770;18.760;2023-09-19T10:03:19;4.20;;;2.30;;
75512;SDS011;64090;49.770;18.760;2023-09-19T10:06:48;3.60;;;2.00;;
75512;SDS011;64090;49.770;18.760;2023-09-19T10:10:37;3.20;;;2.30;;
75512;SDS011;64090;49.770;18.760;2023-09-19T10:14:01;3.60;;;2.20;;
75512;SDS011;64090;49.770;18.760;2023-09-19T10:18:00;4.00;;;2.20;;
75512;SDS011;64090;49.770;18.760;2023-09-19T10:21:19;4.40;;;2.10;;
75512;SDS011;64090;49.770;18.760;2023-09-19T10:24:49;3.40;;;2.30;;
75512;SDS011;64090;49.770;18.760;2023-09-19T10:28:33;2.40;;;1.80;;
75512;SDS011;64090;49.770;18.760;2023-09-19T10:31:59;4.20;;;2.40;;
75512;SDS011;64090;49.770;18.760;2023-09-19T10:35:22;3.30;;;2.10;;
75512;SDS011;64090;49.770;18.760;2023-09-19T10:39:12;3.20;;;2.20;;
75512;SDS011;64090;49.770;18.760;2023-09-19T10:42:33;2.40;;;1.60;;
75512;SDS011;64090;49.770;18.760;2023-09-19T10:46:14;3.40;;;2.50;;
75512;SDS011;64090;49.770;18.760;2023-09-19T10:49:44;3.10;;;1.90;;
75512;SDS011;64090;49.770;18.760;2023-09-19T10:53:24;2.30;;;1.80;;
75512;SDS011;64090;49.770;18.760;2023-09-19T10:57:24;2.90;;;1.80;;
75512;SDS011;64090;49.770;18.760;2023-09-19T11:00:53;4.00;;;1.90;;
75512;SDS011;64090;49.770;18.760;2023-09-19T11:04:31;2.00;;;1.50;;
75512;SDS011;64090;49.770;18.760;2023-09-19T11:07:57;3.10;;;1.90;;
75512;SDS011;64090;49.770;18.760;2023-09-19T11:11:49;4.20;;;2.20;;
75512;SDS011;64090;49.770;18.760;2023-09-19T11:15:10;3.50;;;1.80;;
75512;SDS011;64090;49.770;18.760;2023-09-19T11:19:19;3.70;;;2.30;;
75512;SDS011;64090;49.770;18.760;2023-09-19T11:26:32;3.90;;;2.30;;
75512;SDS011;64090;49.770;18.760;2023-09-19T11:33:36;3.20;;;1.50;;
75512;SDS011;64090;49.770;18.760;2023-09-19T11:36:46;3.00;;;2.10;;
75512;SDS011;64090;49.770;18.760;2023-09-19T11:40:05;2.70;;;1.90;;
75512;SDS011;64090;49.770;18.760;2023-09-19T11:43:28;5.10;;;2.40;;
75512;SDS011;64090;49.770;18.760;2023-09-19T11:46:56;3.10;;;2.40;;
75512;SDS011;64090;49.770;18.760;2023-09-19T11:50:10;3.90;;;2.10;;
75512;SDS011;64090;49.770;18.760;2023-09-19T11:53:32;3.00;;;1.70;;
75512;SDS011;64090;49.770;18.760;2023-09-19T11:56:45;3.40;;;2.10;;
75512;SDS011;64090;49.770;18.760;2023-09-19T11:59:53;3.40;;;2.60;;
75512;SDS011;64090;49.770;18.760;2023-09-19T12:03:30;2.60;;;2.00;;
75512;SDS011;64090;49.770;18.760;2023-09-19T12:06:38;3.20;;;2.10;;
75512;SDS011;64090;49.770;18.760;2023-09-19T12:09:51;2.70;;;2.00;;
75512;SDS011;64090;49.770;18.760;2023-09-19T12:13:07;3.60;;;1.70;;
75512;SDS011;64090;49.770;18.760;2023-09-19T12:16:18;3.60;;;1.50;;
75512;SDS011;64090;49.770;18.760;2023-09-19T12:19:26;3.50;;;1.80;;
75512;SDS011;64090;49.770;18.760;2023-09-19T12:22:38;3.10;;;1.90;;
75512;SDS011;64090;49.770;18.760;2023-09-19T12:25:48;7.60;;;5.50;;
75512;SDS011;64090;49.770;18.760;2023-09-19T12:28:59;3.20;;;2.00;;
75512;SDS011;64090;49.770;18.760;2023-09-19T12:32:16;2.20;;;1.30;;
75512;SDS011;64090;49.770;18.760;2023-09-19T12:35:52;3.00;;;1.70;;
75512;SDS011;64090;49.770;18.760;2023-09-19T12:38:58;3.50;;;2.10;;
75512;SDS011;64090;49.770;18.760;2023-09-19T12:42:13;3.50;;;2.00;;
75512;SDS011;64090;49.770;18.760;2023-09-19T12:45:38;3.10;;;1.70;;
75512;SDS011;64090;49.770;18.760;2023-09-19T12:49:26;2.60;;;2.10;;
75512;SDS011;64090;49.770;18.760;2023-09-19T12:52:24;2.00;;;1.50;;
75512;SDS011;64090;49.770;18.760;2023-09-19T12:55:36;2.90;;;1.50;;
75512;SDS011;64090;49.770;18.760;2023-09-19T12:58:53;2.30;;;1.90;;
75512;SDS011;64090;49.770;18.760;2023-09-19T13:02:09;4.70;;;2.00;;
75512;SDS011;64090;49.770;18.760;2023-09-19T13:05:21;3.30;;;1.70;;
75512;SDS011;64090;49.770;18.760;2023-09-19T13:09:07;3.30;;;1.60;;
75512;SDS011;64090;49.770;18.760;2023-09-19T13:16:04;3.00;;;1.60;;
75512;SDS011;64090;49.770;18.760;2023-09-19T13:19:39;3.50;;;2.00;;
75512;SDS011;64090;49.770;18.760;2023-09-19T13:22:59;3.40;;;1.80;;
75512;SDS011;64090;49.770;18.760;2023-09-19T13:26:55;2.90;;;1.80;;
75512;SDS011;64090;49.770;18.760;2023-09-19T13:30:00;4.30;;;3.80;;
75512;SDS011;64090;49.770;18.760;2023-09-19T13:33:10;3.20;;;2.20;;
75512;SDS011;64090;49.770;18.760;2023-09-19T13:36:46;3.70;;;2.10;;
75512;SDS011;64090;49.770;18.760;2023-09-19T13:40:13;4.20;;;2.20;;
75512;SDS011;64090;49.770;18.760;2023-09-19T13:43:26;2.80;;;2.00;;
75512;SDS011;64090;49.770;18.760;2023-09-19T13:46:41;4.10;;;2.80;;
75512;SDS011;64090;49.770;18.760;2023-09-19T13:49:50;3.50;;;2.10;;
75512;SDS011;64090;49.770;18.760;2023-09-19T13:53:17;3.60;;;2.40;;
75512;SDS011;64090;49.770;18.760;2023-09-19T13:56:27;3.20;;;2.20;;
75512;SDS011;64090;49.770;18.760;2023-09-19T14:00:15;2.90;;;2.30;;
75512;SDS011;64090;49.770;18.760;2023-09-19T14:03:35;3.10;;;2.00;;
75512;SDS011;64090;49.770;18.760;2023-09-19T14:07:04;3.60;;;1.90;;
75512;SDS011;64090;49.770;18.760;2023-09-19T14:10:28;4.10;;;2.00;;
75512;SDS011;64090;49.770;18.760;2023-09-19T14:13:48;2.30;;;1.80;;
75512;SDS011;64090;49.770;18.760;2023-09-19T14:17:39;2.80;;;2.40;;
75512;SDS011;64090;49.770;18.760;2023-09-19T14:20:53;3.00;;;2.10;;
75512;SDS011;64090;49.770;18.760;2023-09-19T14:24:22;4.00;;;2.70;;
75512;SDS011;64090;49.770;18.760;2023-09-19T14:27:36;4.00;;;2.60;;
75512;SDS011;64090;49.770;18.760;2023-09-19T14:31:06;3.20;;;2.30;;
75512;SDS011;64090;49.770;18.760;2023-09-19T14:34:13;3.40;;;2.90;;
75512;SDS011;64090;49.770;18.760;2023-09-19T14:37:33;3.90;;;2.60;;
75512;SDS011;64090;49.770;18.760;2023-09-19T14:40:42;7.00;;;3.50;;
75512;SDS011;64090;49.770;18.760;2023-09-19T14:43:49;4.00;;;3.20;;
75512;SDS011;64090;49.770;18.760;2023-09-19T14:47:06;4.20;;;3.10;;
75512;SDS011;64090;49.770;18.760;2023-09-19T14:50:17;5.10;;;3.30;;
75512;SDS011;64090;49.770;18.760;2023-09-19T14:53:25;4.30;;;2.80;;
75512;SDS011;64090;49.770;18.760;2023-09-19T14:56:38;3.70;;;3.30;;
75512;SDS011;64090;49.770;18.760;2023-09-19T14:59:47;5.30;;;3.10;;
75512;SDS011;64090;49.770;18.760;2023-09-19T15:02:55;5.10;;;3.40;;
75512;SDS011;64090;49.770;18.760;2023-09-19T15:06:02;4.30;;;3.20;;
75512;SDS011;64090;49.770;18.760;2023-09-19T15:09:25;4.60;;;3.30;;
75512;SDS011;64090;49.770;18.760;2023-09-19T15:12:41;4.10;;;2.80;;
75512;SDS011;64090;49.770;18.760;2023-09-19T15:16:00;4.40;;;2.70;;
75512;SDS011;64090;49.770;18.760;2023-09-19T15:19:21;4.40;;;2.70;;
75512;SDS011;64090;49.770;18.760;2023-09-19T15:22:35;3.10;;;2.80;;
75512;SDS011;64090;49.770;18.760;2023-09-19T15:25:47;4.10;;;2.40;;
75512;SDS011;64090;49.770;18.760;2023-09-19T15:28:54;3.30;;;2.30;;
75512;SDS011;64090;49.770;18.760;2023-09-19T15:32:14;3.70;;;2.30;;
75512;SDS011;64090;49.770;18.760;2023-09-19T15:35:26;3.40;;;3.00;;
75512;SDS011;64090;49.770;18.760;2023-09-19T15:42:17;3.30;;;2.10;;
75512;SDS011;64090;49.770;18.760;2023-09-19T15:45:38;3.00;;;2.10;;
75512;SDS011;64090;49.770;18.760;2023-09-19T15:48:44;3.20;;;2.20;;
75512;SDS011;64090;49.770;18.760;2023-09-19T15:51:52;3.50;;;2.60;;
75512;SDS011;64090;49.770;18.760;2023-09-19T15:55:02;2.60;;;1.90;;
75512;SDS011;64090;49.770;18.760;2023-09-19T15:58:11;3.80;;;2.20;;
75512;SDS011;64090;49.770;18.760;2023-09-19T16:01:21;4.10;;;2.90;;
75512;SDS011;64090;49.770;18.760;2023-09-19T16:04:40;3.30;;;2.50;;
75512;SDS011;64090;49.770;18.760;2023-09-19T16:07:48;3.80;;;2.40;;
75512;SDS011;64090;49.770;18.760;2023-09-19T16:11:01;3.70;;;2.10;;
75512;SDS011;64090;49.770;18.760;2023-09-19T16:14:29;3.60;;;2.40;;
75512;SDS011;64090;49.770;18.760;2023-09-19T16:17:46;2.90;;;2.10;;
75512;SDS011;64090;49.770;18.760;2023-09-19T16:21:17;3.60;;;2.00;;
75512;SDS011;64090;49.770;18.760;2023-09-19T16:24:51;2.70;;;2.20;;
75512;SDS011;64090;49.770;18.760;2023-09-19T16:28:01;5.40;;;2.50;;
75512;SDS011;64090;49.770;18.760;2023-09-19T16:31:40;5.10;;;2.40;;
75512;SDS011;64090;49.770;18.760;2023-09-19T16:35:14;2.80;;;2.30;;
75512;SDS011;64090;49.770;18.760;2023-09-19T16:38:40;3.60;;;2.70;;
75512;SDS011;64090;49.770;18.760;2023-09-19T16:42:06;3.60;;;3.00;;
75512;SDS011;64090;49.770;18.760;2023-09-19T16:45:34;4.00;;;2.90;;
75512;SDS011;64090;49.770;18.760;2023-09-19T16:52:09;3.80;;;3.00;;
75512;SDS011;64090;49.770;18.760;2023-09-19T16:55:40;4.20;;;2.80;;
75512;SDS011;64090;49.770;18.760;2023-09-19T16:59:34;3.50;;;2.80;;
75512;SDS011;64090;49.770;18.760;2023-09-19T17:02:55;3.30;;;2.60;;
75512;SDS011;64090;49.770;18.760;2023-09-19T17:06:40;3.40;;;2.80;;
75512;SDS011;64090;49.770;18.760;2023-09-19T17:10:04;3.70;;;3.20;;
75512;SDS011;64090;49.770;18.760;2023-09-19T17:13:49;4.60;;;3.50;;
75512;SDS011;64090;49.770;18.760;2023-09-19T17:17:45;4.10;;;3.20;;
75512;SDS011;64090;49.770;18.760;2023-09-19T17:21:09;8.80;;;7.10;;
75512;SDS011;64090;49.770;18.760;2023-09-19T17:24:35;5.60;;;4.30;;
75512;SDS011;64090;49.770;18.760;2023-09-19T17:28:00;4.10;;;3.30;;
75512;SDS011;64090;49.770;18.760;2023-09-19T17:31:26;5.10;;;3.40;;
75512;SDS011;64090;49.770;18.760;2023-09-19T17:35:06;4.50;;;3.00;;
75512;SDS011;64090;49.770;18.760;2023-09-19T17:38:30;4.60;;;3.40;;
75512;SDS011;64090;49.770;18.760;2023-09-19T17:42:24;3.80;;;3.40;;
75512;SDS011;64090;49.770;18.760;2023-09-19T17:46:05;4.40;;;3.40;;
75512;SDS011;64090;49.770;18.760;2023-09-19T17:50:01;3.70;;;3.30;;
75512;SDS011;64090;49.770;18.760;2023-09-19T17:53:47;5.00;;;3.20;;
75512;SDS011;64090;49.770;18.760;2023-09-19T17:57:12;5.20;;;3.30;;
75512;SDS011;64090;49.770;18.760;2023-09-19T18:00:41;4.30;;;3.40;;
75512;SDS011;64090;49.770;18.760;2023-09-19T18:03:50;5.80;;;3.90;;
75512;SDS011;64090;49.770;18.760;2023-09-19T18:07:57;4.60;;;3.20;;
75512;SDS011;64090;49.770;18.760;2023-09-19T18:11:45;5.80;;;4.10;;
75512;SDS011;64090;49.770;18.760;2023-09-19T18:15:36;6.10;;;3.80;;
75512;SDS011;64090;49.770;18.760;2023-09-19T18:19:12;4.00;;;3.50;;
75512;SDS011;64090;49.770;18.760;2023-09-19T18:22:55;4.50;;;3.40;;
75512;SDS011;64090;49.770;18.760;2023-09-19T18:27:05;6.60;;;4.10;;
75512;SDS011;64090;49.770;18.760;2023-09-19T18:30:54;7.50;;;4.30;;
75512;SDS011;64090;49.770;18.760;2023-09-19T18:34:30;4.00;;;3.30;;
75512;SDS011;64090;49.770;18.760;2023-09-19T18:37:58;4.80;;;3.90;;
75512;SDS011;64090;49.770;18.760;2023-09-19T18:41:39;4.20;;;3.50;;
75512;SDS011;64090;49.770;18.760;2023-09-19T18:45:23;6.80;;;4.60;;
75512;SDS011;64090;49.770;18.760;2023-09-19T18:49:28;6.80;;;5.20;;
75512;SDS011;64090;49.770;18.760;2023-09-19T18:52:58;10.90;;;6.80;;
75512;SDS011;64090;49.770;18.760;2023-09-19T18:56:29;11.30;;;7.60;;
75512;SDS011;64090;49.770;18.760;2023-09-19T19:00:04;12.20;;;8.00;;
75512;SDS011;64090;49.770;18.760;2023-09-19T19:03:31;10.00;;;7.60;;
75512;SDS011;64090;49.770;18.760;2023-09-19T19:07:11;13.10;;;8.20;;
75512;SDS011;64090;49.770;18.760;2023-09-19T19:11:07;13.20;;;7.80;;
75512;SDS011;64090;49.770;18.760;2023-09-19T19:14:47;10.80;;;8.00;;
75512;SDS011;64090;49.770;18.760;2023-09-19T19:18:20;9.30;;;6.90;;
75512;SDS011;64090;49.770;18.760;2023-09-19T19:22:26;9.20;;;7.30;;
75512;SDS011;64090;49.770;18.760;2023-09-19T19:26:07;10.50;;;6.30;;
75512;SDS011;64090;49.770;18.760;2023-09-19T19:29:57;8.30;;;6.50;;
75512;SDS011;64090;49.770;18.760;2023-09-19T19:33:21;6.60;;;5.00;;
75512;SDS011;64090;49.770;18.760;2023-09-19T19:36:45;8.50;;;6.50;;
75512;SDS011;64090;49.770;18.760;2023-09-19T19:40:18;8.20;;;6.00;;
75512;SDS011;64090;49.770;18.760;2023-09-19T19:48:08;6.90;;;5.10;;
75512;SDS011;64090;49.770;18.760;2023-09-19T19:51:37;6.10;;;4.90;;
75512;SDS011;64090;49.770;18.760;2023-09-19T19:55:09;6.80;;;5.40;;
75512;SDS011;64090;49.770;18.760;2023-09-19T19:58:56;7.40;;;5.50;;
75512;SDS011;64090;49.770;18.760;2023-09-19T20:02:52;6.90;;;4.90;;
75512;SDS011;64090;49.770;18.760;2023-09-19T20:06:49;11.20;;;5.20;;
75512;SDS011;64090;49.770;18.760;2023-09-19T20:10:08;12.10;;;5.00;;
75512;SDS011;64090;49.770;18.760;2023-09-19T20:14:00;7.50;;;4.90;;
75512;SDS011;64090;49.770;18.760;2023-09-19T20:25:22;5.20;;;4.00;;
75512;SDS011;64090;49.770;18.760;2023-09-19T20:28:53;7.20;;;4.10;;
75512;SDS011;64090;49.770;18.760;2023-09-19T20:32:16;8.20;;;4.50;;
75512;SDS011;64090;49.770;18.760;2023-09-19T20:35:50;6.30;;;4.70;;
75512;SDS011;64090;49.770;18.760;2023-09-19T20:39:20;6.40;;;4.30;;
75512;SDS011;64090;49.770;18.760;2023-09-19T20:43:04;8.20;;;4.70;;
75512;SDS011;64090;49.770;18.760;2023-09-19T20:46:23;7.80;;;4.80;;
75512;SDS011;64090;49.770;18.760;2023-09-19T20:50:49;5.90;;;4.50;;
75512;SDS011;64090;49.770;18.760;2023-09-19T20:54:53;7.30;;;5.00;;
75512;SDS011;64090;49.770;18.760;2023-09-19T20:58:08;6.40;;;5.00;;
75512;SDS011;64090;49.770;18.760;2023-09-19T21:01:38;6.50;;;4.60;;
75512;SDS011;64090;49.770;18.760;2023-09-19T21:05:17;5.90;;;4.70;;
75512;SDS011;64090;49.770;18.760;2023-09-19T21:09:02;7.00;;;5.20;;
75512;SDS011;64090;49.770;18.760;2023-09-19T21:12:50;5.70;;;5.00;;
75512;SDS011;64090;49.770;18.760;2023-09-19T21:16:23;8.90;;;5.20;;
75512;SDS011;64090;49.770;18.760;2023-09-19T21:20:14;6.10;;;3.70;;
75512;SDS011;64090;49.770;18.760;2023-09-19T21:23:34;6.70;;;4.60;;
75512;SDS011;64090;49.770;18.760;2023-09-19T21:27:14;5.10;;;3.60;;
75512;SDS011;64090;49.770;18.760;2023-09-19T21:31:01;5.70;;;4.20;;
75512;SDS011;64090;49.770;18.760;2023-09-19T21:34:42;4.50;;;3.80;;
75512;SDS011;64090;49.770;18.760;2023-09-19T21:38:30;7.20;;;4.70;;